Time;durP1;ratioP1;P1;durP2;ratioP2;P2;SDS_P1;SDS_P2;PMS_P1;PMS_P2;Temp;Humidity;BMP_temperature;BMP_pressure;BME280_temperature;BME280_humidity;BME280_pressure;Samples;Min_cycle;Max_cycle;Signal;HPM_P1;HPM_P2
2023/03/26 00:02:10;;;;;;;2.58;1.70;;;;;;;;;;5015939;28;20022;-73
2023/03/26 00:04:35;;;;;;;5.45;1.80;;;;;;;;;;5015773;28;20026;-65
2023/03/26 00:07:01;;;;;;;4.68;1.70;;;;;;;;;;5015441;28;20379;-67
2023/03/26 00:09:28;;;;;;;2.25;1.55;;;;;;;;;;5006691;28;20026;-76
2023/03/26 00:11:55;;;;;;;2.88;1.77;;;;;;;;;;4995796;28;20051;-69
2023/03/26 00:14:20;;;;;;;2.70;1.40;;;;;;;;;;4996076;28;20510;-64
2023/03/26 00:16:48;;;;;;;4.18;1.50;;;;;;;;;;5007842;28;20029;-63
2023/03/26 00:19:14;;;;;;;5.43;1.60;;;;;;;;;;5015451;28;20420;-63
2023/03/26 00:21:40;;;;;;;2.38;1.38;;;;;;;;;;5015444;28;20022;-65
2023/03/26 00:24:10;;;;;;;3.05;1.70;;;;;;;;;;5015440;28;20048;-71
2023/03/26 00:26:37;;;;;;;3.33;1.73;;;;;;;;;;5014302;28;20096;-68
2023/03/26 00:29:03;;;;;;;3.58;1.58;;;;;;;;;;5012816;28;20034;-73
2023/03/26 00:31:28;;;;;;;2.50;1.60;;;;;;;;;;5014313;28;20490;-63
2023/03/26 00:33:55;;;;;;;4.75;1.70;;;;;;;;;;5014155;28;20045;-68
2023/03/26 00:36:24;;;;;;;4.13;2.05;;;;;;;;;;5007216;28;20109;-63
2023/03/26 00:38:51;;;;;;;4.55;1.83;;;;;;;;;;5005687;28;20092;-70
2023/03/26 00:41:29;;;;;;;2.83;1.80;;;;;;;;;;5004110;28;20136;-70
2023/03/26 00:43:57;;;;;;;5.55;1.95;;;;;;;;;;5004042;28;20019;-68
2023/03/26 00:46:24;;;;;;;2.80;1.60;;;;;;;;;;5004434;28;20110;-65
2023/03/26 00:48:49;;;;;;;2.72;1.45;;;;;;;;;;5005572;28;20022;-68
2023/03/26 00:51:16;;;;;;;4.97;1.85;;;;;;;;;;5003855;28;20093;-76
2023/03/26 00:53:44;;;;;;;3.45;1.60;;;;;;;;;;5004546;28;20557;-76
2023/03/26 00:56:10;;;;;;;3.28;1.73;;;;;;;;;;5005271;28;20030;-64
2023/03/26 00:58:36;;;;;;;3.67;1.63;;;;;;;;;;5003787;28;20137;-66
2023/03/26 01:01:05;;;;;;;3.92;1.95;;;;;;;;;;5004338;28;20470;-68
2023/03/26 01:03:33;;;;;;;3.60;1.80;;;;;;;;;;5005627;28;20106;-65
2023/03/26 01:06:10;;;;;;;8.02;1.83;;;;;;;;;;5007209;28;20045;-67
2023/03/26 01:08:43;;;;;;;2.85;1.70;;;;;;;;;;5014532;28;20092;-71
2023/03/26 01:11:22;;;;;;;2.03;1.10;;;;;;;;;;5014246;28;20395;-64
2023/03/26 01:14:01;;;;;;;5.85;1.38;;;;;;;;;;5014592;28;20404;-76
2023/03/26 01:16:40;;;;;;;3.33;1.30;;;;;;;;;;5014482;28;20057;-77
2023/03/26 01:19:11;;;;;;;2.55;1.20;;;;;;;;;;5013662;28;20050;-76
2023/03/26 01:21:38;;;;;;;3.45;1.30;;;;;;;;;;5014009;28;20030;-76
2023/03/26 01:24:05;;;;;;;2.58;1.45;;;;;;;;;;5013768;28;20033;-76
2023/03/26 01:26:37;;;;;;;2.80;1.50;;;;;;;;;;5013864;28;20395;-77
2023/03/26 01:29:07;;;;;;;4.10;2.00;;;;;;;;;;5011447;28;20050;-68
2023/03/26 01:31:38;;;;;;;2.20;1.40;;;;;;;;;;5013816;28;20096;-72
2023/03/26 01:34:26;;;;;;;3.28;1.55;;;;;;;;;;5009896;28;20053;-66
2023/03/26 01:36:58;;;;;;;1.63;1.10;;;;;;;;;;5012564;28;20088;-72
2023/03/26 01:39:30;;;;;;;4.43;1.48;;;;;;;;;;5011143;28;20018;-73
2023/03/26 01:42:01;;;;;;;4.45;1.83;;;;;;;;;;5013540;28;20026;-71
2023/03/26 01:44:48;;;;;;;3.65;1.58;;;;;;;;;;5012748;28;20029;-72
2023/03/26 01:47:16;;;;;;;4.32;1.40;;;;;;;;;;5012358;28;20064;-70
2023/03/26 01:49:41;;;;;;;5.65;1.50;;;;;;;;;;5008216;28;20038;-73
2023/03/26 01:52:18;;;;;;;2.45;1.60;;;;;;;;;;5014102;28;20030;-64
2023/03/26 01:54:45;;;;;;;3.83;1.73;;;;;;;;;;5013739;28;20026;-62
2023/03/26 01:57:19;;;;;;;3.05;1.60;;;;;;;;;;5013899;28;20045;-77
2023/03/26 02:00:11;;;;;;;5.05;1.60;;;;;;;;;;5013879;28;20373;-72
2023/03/26 02:02:49;;;;;;;2.88;1.40;;;;;;;;;;5009884;28;20145;-66
2023/03/26 02:05:27;;;;;;;1.73;1.30;;;;;;;;;;5013748;28;20040;-68
2023/03/26 02:08:04;;;;;;;3.80;1.50;;;;;;;;;;5013469;28;20065;-62
2023/03/26 02:10:34;;;;;;;3.05;1.20;;;;;;;;;;5013659;28;20061;-70
2023/03/26 02:12:59;;;;;;;4.43;1.80;;;;;;;;;;5013567;28;20088;-73
2023/03/26 02:15:25;;;;;;;3.92;1.40;;;;;;;;;;5013599;28;20267;-76
2023/03/26 02:17:51;;;;;;;3.63;1.85;;;;;;;;;;5013447;28;20030;-64
2023/03/26 02:20:18;;;;;;;4.53;1.83;;;;;;;;;;5013496;28;20026;-64
2023/03/26 02:22:46;;;;;;;3.08;1.67;;;;;;;;;;5013257;28;20117;-72
2023/03/26 02:25:16;;;;;;;5.15;1.80;;;;;;;;;;5013295;28;20037;-62
2023/03/26 02:27:42;;;;;;;4.45;1.85;;;;;;;;;;5011962;28;20022;-66
2023/03/26 02:30:11;;;;;;;3.35;1.65;;;;;;;;;;5013416;28;20037;-66
2023/03/26 02:32:37;;;;;;;3.03;1.35;;;;;;;;;;5015052;28;20026;-69
2023/03/26 02:35:04;;;;;;;3.17;1.58;;;;;;;;;;5032844;28;20060;-65
2023/03/26 02:37:32;;;;;;;3.47;1.60;;;;;;;;;;5032783;28;20026;-63
2023/03/26 02:39:58;;;;;;;4.03;1.70;;;;;;;;;;5033078;28;20097;-68
2023/03/26 02:42:24;;;;;;;2.90;1.60;;;;;;;;;;5032967;28;20048;-65
2023/03/26 02:44:49;;;;;;;2.20;1.63;;;;;;;;;;5032998;28;20427;-69
2023/03/26 02:47:15;;;;;;;2.20;1.30;;;;;;;;;;5032556;28;20034;-73
2023/03/26 02:49:40;;;;;;;4.13;1.40;;;;;;;;;;5032656;28;20026;-62
2023/03/26 02:52:06;;;;;;;3.78;1.40;;;;;;;;;;5066215;22;20056;-66
2023/03/26 02:54:33;;;;;;;3.20;1.42;;;;;;;;;;5032644;28;20060;-61
2023/03/26 02:56:58;;;;;;;2.22;1.33;;;;;;;;;;5032551;28;20025;-64
2023/03/26 02:59:24;;;;;;;3.17;1.52;;;;;;;;;;5032738;28;20079;-66
2023/03/26 03:01:50;;;;;;;3.10;1.63;;;;;;;;;;5032671;28;20028;-66
2023/03/26 03:04:16;;;;;;;6.10;1.25;;;;;;;;;;5032637;28;20030;-67
2023/03/26 03:06:43;;;;;;;4.20;1.52;;;;;;;;;;5032152;28;20048;-66
2023/03/26 03:09:10;;;;;;;2.53;1.52;;;;;;;;;;5032576;28;20360;-65
2023/03/26 03:11:37;;;;;;;1.58;1.20;;;;;;;;;;5032531;28;20025;-63
2023/03/26 03:14:03;;;;;;;5.68;1.77;;;;;;;;;;5032677;28;20033;-74
2023/03/26 03:16:29;;;;;;;2.88;1.73;;;;;;;;;;5032531;28;20029;-64
2023/03/26 03:18:55;;;;;;;2.85;1.60;;;;;;;;;;5032590;28;20116;-64
2023/03/26 03:21:22;;;;;;;5.30;1.80;;;;;;;;;;5032475;28;20053;-69
2023/03/26 03:23:48;;;;;;;2.45;1.55;;;;;;;;;;5032485;28;20034;-65
2023/03/26 03:26:20;;;;;;;3.33;1.75;;;;;;;;;;5032463;28;20059;-67
2023/03/26 03:28:49;;;;;;;5.45;2.15;;;;;;;;;;5032341;28;20079;-67
2023/03/26 03:31:16;;;;;;;2.67;1.35;;;;;;;;;;5032449;28;20080;-65
2023/03/26 03:33:42;;;;;;;4.65;2.22;;;;;;;;;;5043190;28;20385;-72
2023/03/26 03:36:10;;;;;;;3.53;1.90;;;;;;;;;;5051955;28;20028;-64
2023/03/26 03:38:40;;;;;;;2.63;1.60;;;;;;;;;;5052053;28;20029;-66
2023/03/26 03:41:06;;;;;;;4.93;1.95;;;;;;;;;;5052274;28;20028;-69
2023/03/26 03:43:32;;;;;;;5.15;1.85;;;;;;;;;;5052267;28;20370;-74
2023/03/26 03:46:01;;;;;;;4.50;1.90;;;;;;;;;;5052218;28;20025;-68
2023/03/26 03:48:28;;;;;;;4.57;2.05;;;;;;;;;;5052151;28;20036;-66
2023/03/26 03:50:55;;;;;;;4.72;1.58;;;;;;;;;;5052037;28;20179;-62
2023/03/26 03:53:24;;;;;;;4.70;2.00;;;;;;;;;;5052147;28;20437;-68
2023/03/26 03:55:52;;;;;;;5.00;1.67;;;;;;;;;;5052301;28;20112;-64
2023/03/26 03:58:23;;;;;;;5.20;2.50;;;;;;;;;;5052019;28;20349;-77
2023/03/26 04:00:50;;;;;;;4.78;1.98;;;;;;;;;;5052208;28;20029;-77
2023/03/26 04:03:16;;;;;;;4.50;1.90;;;;;;;;;;5051792;28;20029;-73
2023/03/26 04:05:48;;;;;;;4.35;1.90;;;;;;;;;;5051916;28;20385;-76
2023/03/26 04:08:14;;;;;;;4.28;1.90;;;;;;;;;;5053135;28;20035;-73
2023/03/26 04:10:42;;;;;;;3.22;1.80;;;;;;;;;;5037709;28;20375;-77
2023/03/26 04:13:08;;;;;;;4.68;1.83;;;;;;;;;;5055509;28;20021;-72
2023/03/26 04:15:34;;;;;;;5.43;2.45;;;;;;;;;;5055569;28;20549;-76
2023/03/26 04:18:00;;;;;;;7.70;2.05;;;;;;;;;;5055043;28;20033;-71
2023/03/26 04:20:26;;;;;;;7.95;2.13;;;;;;;;;;5055451;28;20086;-76
2023/03/26 04:22:51;;;;;;;4.47;1.98;;;;;;;;;;5055380;28;20485;-71
2023/03/26 04:25:17;;;;;;;3.88;2.00;;;;;;;;;;5054970;28;20478;-70
2023/03/26 04:27:43;;;;;;;5.72;2.22;;;;;;;;;;5055187;28;20028;-64
2023/03/26 04:30:14;;;;;;;5.38;1.85;;;;;;;;;;5055267;28;20036;-70
2023/03/26 04:32:41;;;;;;;5.18;2.30;;;;;;;;;;5054824;28;20374;-64
2023/03/26 04:35:11;;;;;;;5.25;2.25;;;;;;;;;;5055116;28;20378;-62
2023/03/26 04:37:40;;;;;;;4.00;2.53;;;;;;;;;;5054798;28;20017;-75
2023/03/26 04:40:13;;;;;;;4.35;2.10;;;;;;;;;;5055069;28;20021;-63
2023/03/26 04:42:45;;;;;;;4.57;2.00;;;;;;;;;;5055036;28;20029;-65
2023/03/26 04:45:12;;;;;;;5.53;2.30;;;;;;;;;;5054925;28;20029;-68
2023/03/26 04:47:37;;;;;;;6.13;2.03;;;;;;;;;;5054578;28;20025;-62
2023/03/26 04:50:05;;;;;;;7.40;3.13;;;;;;;;;;5054685;28;20086;-70
2023/03/26 04:52:31;;;;;;;4.97;1.98;;;;;;;;;;5036890;28;20049;-71
2023/03/26 04:54:57;;;;;;;8.82;2.50;;;;;;;;;;5054612;28;20029;-70
2023/03/26 04:57:45;;;;;;;4.18;2.35;;;;;;;;;;5054590;28;20033;-61
2023/03/26 05:00:19;;;;;;;6.45;2.33;;;;;;;;;;5054487;28;20332;-65
2023/03/26 05:02:48;;;;;;;6.97;2.22;;;;;;;;;;5054448;28;20486;-64
2023/03/26 05:05:14;;;;;;;7.25;2.58;;;;;;;;;;5054462;28;20025;-66
2023/03/26 05:07:41;;;;;;;5.35;2.50;;;;;;;;;;5054208;28;20519;-64
2023/03/26 05:10:07;;;;;;;4.82;2.47;;;;;;;;;;5054675;28;20025;-68
2023/03/26 05:12:33;;;;;;;5.70;2.50;;;;;;;;;;5054330;28;20496;-63
2023/03/26 05:14:59;;;;;;;4.65;2.55;;;;;;;;;;5054435;28;20116;-63
2023/03/26 05:17:25;;;;;;;5.15;2.20;;;;;;;;;;5053995;28;20102;-63
2023/03/26 05:19:51;;;;;;;6.30;1.85;;;;;;;;;;5054160;28;20079;-74
2023/03/26 05:22:19;;;;;;;5.15;2.42;;;;;;;;;;5054138;28;20033;-78
2023/03/26 05:24:45;;;;;;;6.40;2.45;;;;;;;;;;5054100;28;20056;-66
2023/03/26 05:27:19;;;;;;;6.28;2.35;;;;;;;;;;5054082;28;20424;-62
2023/03/26 05:29:45;;;;;;;4.85;2.60;;;;;;;;;;5054000;28;20104;-69
2023/03/26 05:32:11;;;;;;;6.32;2.88;;;;;;;;;;5053782;28;20094;-70
2023/03/26 05:34:38;;;;;;;6.85;2.50;;;;;;;;;;5053838;28;20021;-77
2023/03/26 05:37:05;;;;;;;5.85;2.50;;;;;;;;;;5053887;28;20102;-62
2023/03/26 05:39:31;;;;;;;6.32;2.60;;;;;;;;;;5053930;28;20350;-63
2023/03/26 05:41:57;;;;;;;6.88;2.53;;;;;;;;;;5053711;28;20029;-61
2023/03/26 05:44:22;;;;;;;4.75;2.85;;;;;;;;;;5053951;28;20021;-64
2023/03/26 05:46:48;;;;;;;7.65;2.83;;;;;;;;;;5053522;28;20408;-75
2023/03/26 05:49:13;;;;;;;7.28;2.58;;;;;;;;;;5053587;28;20069;-77
2023/03/26 05:51:39;;;;;;;9.43;2.60;;;;;;;;;;5053525;28;20045;-77
2023/03/26 05:54:04;;;;;;;4.82;2.28;;;;;;;;;;5053589;28;20127;-77
2023/03/26 05:56:30;;;;;;;7.22;2.30;;;;;;;;;;5053644;28;20029;-77
2023/03/26 05:58:56;;;;;;;5.93;2.45;;;;;;;;;;5053257;28;20036;-76
2023/03/26 06:01:24;;;;;;;6.07;2.20;;;;;;;;;;5053641;28;20044;-77
2023/03/26 06:03:50;;;;;;;8.00;2.20;;;;;;;;;;5053476;28;20163;-78
2023/03/26 06:06:18;;;;;;;3.60;2.10;;;;;;;;;;5053279;28;20427;-78
2023/03/26 06:08:51;;;;;;;4.57;2.10;;;;;;;;;;5053204;28;20032;-74
2023/03/26 06:11:19;;;;;;;4.88;1.83;;;;;;;;;;5053260;28;20048;-75
2023/03/26 06:13:45;;;;;;;5.53;1.90;;;;;;;;;;5052856;28;20037;-77
2023/03/26 06:16:12;;;;;;;4.95;2.10;;;;;;;;;;5053287;28;20023;-76
2023/03/26 06:18:39;;;;;;;4.15;1.60;;;;;;;;;;5052781;28;20078;-72
2023/03/26 06:21:05;;;;;;;4.95;1.83;;;;;;;;;;5053060;28;20107;-74
2023/03/26 06:23:31;;;;;;;5.95;1.88;;;;;;;;;;5053196;28;20025;-77
2023/03/26 06:25:57;;;;;;;3.83;1.88;;;;;;;;;;5035078;28;20029;-75
2023/03/26 06:28:22;;;;;;;3.95;1.92;;;;;;;;;;5052719;28;20108;-70
2023/03/26 06:30:48;;;;;;;6.22;1.70;;;;;;;;;;5052414;28;20032;-65
2023/03/26 06:33:14;;;;;;;7.38;2.15;;;;;;;;;;5052789;28;20478;-75
2023/03/26 06:35:41;;;;;;;4.22;1.60;;;;;;;;;;5053017;28;20036;-76
2023/03/26 06:38:07;;;;;;;4.05;1.70;;;;;;;;;;5052585;28;20064;-78
2023/03/26 06:40:33;;;;;;;5.25;1.83;;;;;;;;;;5052881;28;20049;-78
2023/03/26 06:42:59;;;;;;;4.10;1.88;;;;;;;;;;5052615;28;20037;-77
2023/03/26 06:45:26;;;;;;;4.18;1.90;;;;;;;;;;5052867;28;20382;-77
2023/03/26 06:47:51;;;;;;;4.03;2.20;;;;;;;;;;5052857;28;20064;-74
2023/03/26 06:50:17;;;;;;;5.70;2.17;;;;;;;;;;5052422;28;20076;-78
2023/03/26 06:52:42;;;;;;;5.03;1.70;;;;;;;;;;5052809;28;20060;-78
2023/03/26 06:55:09;;;;;;;4.47;1.42;;;;;;;;;;5052613;28;20032;-77
2023/03/26 06:57:35;;;;;;;4.22;1.80;;;;;;;;;;5052387;28;20029;-74
2023/03/26 07:00:00;;;;;;;4.20;1.58;;;;;;;;;;5052688;28;20174;-73
2023/03/26 07:02:26;;;;;;;2.97;1.60;;;;;;;;;;5052586;28;20021;-75
2023/03/26 07:04:52;;;;;;;6.32;1.63;;;;;;;;;;5052633;28;20058;-75
2023/03/26 07:07:20;;;;;;;5.65;1.50;;;;;;;;;;5052118;28;20454;-74
2023/03/26 07:09:46;;;;;;;3.53;1.90;;;;;;;;;;5052649;28;20035;-77
2023/03/26 07:12:12;;;;;;;4.05;1.50;;;;;;;;;;5052353;28;20021;-76
2023/03/26 07:14:38;;;;;;;4.57;1.50;;;;;;;;;;5052446;28;20049;-75
2023/03/26 07:17:03;;;;;;;3.45;1.38;;;;;;;;;;5052417;28;20405;-75
2023/03/26 07:19:29;;;;;;;4.65;2.00;;;;;;;;;;5052400;28;20028;-73
2023/03/26 07:21:54;;;;;;;10.93;2.95;;;;;;;;;;5052497;28;20454;-72
2023/03/26 07:24:20;;;;;;;6.75;2.80;;;;;;;;;;5052416;28;20033;-74
2023/03/26 07:27:02;;;;;;;6.30;2.03;;;;;;;;;;5051990;28;20021;-76
2023/03/26 07:29:42;;;;;;;5.82;2.15;;;;;;;;;;5052636;28;20060;-72
2023/03/26 07:32:45;;;;;;;5.97;1.90;;;;;;;;;;5034854;28;20036;-75
2023/03/26 07:35:28;;;;;;;3.60;1.55;;;;;;;;;;5012660;28;20060;-75
2023/03/26 07:38:19;;;;;;;9.52;1.58;;;;;;;;;;5012559;28;20030;-68
2023/03/26 07:41:06;;;;;;;5.22;1.67;;;;;;;;;;5012510;28;20029;-75
2023/03/26 07:43:49;;;;;;;8.60;1.90;;;;;;;;;;5014211;28;20386;-71
2023/03/26 07:46:16;;;;;;;5.07;1.75;;;;;;;;;;5016219;28;20056;-75
2023/03/26 07:48:46;;;;;;;6.55;1.92;;;;;;;;;;5016032;28;20331;-78
2023/03/26 07:51:12;;;;;;;;;;;;;;;;;;4999311;28;20066;-69
2023/03/26 07:53:37;;;;;;;4.13;1.75;;;;;;;;;;5015974;28;19920;-63
2023/03/26 07:56:10;;;;;;;4.38;1.55;;;;;;;;;;5015863;28;20390;-75
2023/03/26 07:59:00;;;;;;;4.40;1.42;;;;;;;;;;5015949;28;20429;-64
2023/03/26 08:01:54;;;;;;;4.17;1.50;;;;;;;;;;5016158;28;20022;-71
2023/03/26 08:04:50;;;;;;;6.22;1.85;;;;;;;;;;5015748;28;20060;-77
2023/03/26 08:07:21;;;;;;;5.85;1.92;;;;;;;;;;5015947;28;20029;-77
2023/03/26 08:10:06;;;;;;;6.32;1.55;;;;;;;;;;5015618;28;20018;-66
2023/03/26 08:12:53;;;;;;;3.15;1.25;;;;;;;;;;5015887;28;20105;-72
2023/03/26 08:15:28;;;;;;;9.48;3.10;;;;;;;;;;5015738;28;20422;-71
2023/03/26 08:18:43;;;;;;;4.40;1.30;;;;;;;;;;5015732;28;20128;-71
2023/03/26 08:21:25;;;;;;;5.60;1.80;;;;;;;;;;4935900;29;20508;-75
2023/03/26 08:24:03;;;;;;;6.30;1.83;;;;;;;;;;4935877;29;20086;-74
2023/03/26 08:27:04;;;;;;;5.25;2.03;;;;;;;;;;4935744;29;20462;-74
2023/03/26 08:29:53;;;;;;;5.90;2.50;;;;;;;;;;4923655;29;20044;-74
2023/03/26 08:32:19;;;;;;;3.28;1.25;;;;;;;;;;4935465;29;20036;-69
2023/03/26 08:34:45;;;;;;;2.88;1.30;;;;;;;;;;4972902;28;20030;-75
2023/03/26 08:37:11;;;;;;;1.67;1.20;;;;;;;;;;4973996;28;20039;-72
2023/03/26 08:39:38;;;;;;;1.45;0.75;;;;;;;;;;4973918;28;20090;-72
2023/03/26 08:42:18;;;;;;;1.77;0.95;;;;;;;;;;4973515;28;20416;-73
2023/03/26 08:45:16;;;;;;;2.75;0.95;;;;;;;;;;4974252;28;20089;-71
2023/03/26 08:48:02;;;;;;;2.28;1.00;;;;;;;;;;4973930;28;20035;-66
2023/03/26 08:50:55;;;;;;;4.32;1.75;;;;;;;;;;4973672;28;20074;-67
2023/03/26 08:53:33;;;;;;;4.70;1.50;;;;;;;;;;5054310;28;20033;-73
2023/03/26 08:56:23;;;;;;;2.90;1.40;;;;;;;;;;5054690;28;20047;-69
2023/03/26 08:58:48;;;;;;;3.85;1.40;;;;;;;;;;5054450;28;20039;-74
2023/03/26 09:01:56;;;;;;;2.65;1.00;;;;;;;;;;5054397;28;20033;-75
2023/03/26 09:04:39;;;;;;;2.53;1.00;;;;;;;;;;5043539;28;20401;-70
2023/03/26 09:07:31;;;;;;;2.65;1.00;;;;;;;;;;5054391;28;20036;-71
2023/03/26 09:10:14;;;;;;;4.95;1.33;;;;;;;;;;5054477;28;20025;-75
2023/03/26 09:13:20;;;;;;;4.57;1.05;;;;;;;;;;5054471;28;20127;-76
2023/03/26 09:16:16;;;;;;;2.13;1.10;;;;;;;;;;4973270;28;20530;-71
2023/03/26 09:19:05;;;;;;;4.20;0.98;;;;;;;;;;4973386;28;20038;-76
2023/03/26 09:21:38;;;;;;;2.88;1.13;;;;;;;;;;4973393;28;20444;-76
2023/03/26 09:24:34;;;;;;;5.97;1.50;;;;;;;;;;4972698;28;20034;-75
2023/03/26 09:27:26;;;;;;;5.07;1.35;;;;;;;;;;4953815;29;20110;-76
2023/03/26 09:30:10;;;;;;;2.67;1.08;;;;;;;;;;4953753;29;20444;-76
2023/03/26 09:32:52;;;;;;;3.80;1.20;;;;;;;;;;4955328;28;20103;-73
2023/03/26 09:35:36;;;;;;;1.95;0.82;;;;;;;;;;4973194;28;20031;-75
2023/03/26 09:38:28;;;;;;;3.90;1.67;;;;;;;;;;4972964;28;20039;-70
2023/03/26 09:41:31;;;;;;;1.92;0.77;;;;;;;;;;4973180;28;20059;-75
2023/03/26 09:43:59;;;;;;;1.95;1.05;;;;;;;;;;4972969;28;20113;-73
2023/03/26 09:46:45;;;;;;;3.38;0.80;;;;;;;;;;4972989;28;20602;-75
2023/03/26 09:49:10;;;;;;;6.95;1.00;;;;;;;;;;4972663;28;20039;-76
2023/03/26 09:51:50;;;;;;;2.03;0.90;;;;;;;;;;4972397;28;20047;-76
2023/03/26 09:54:16;;;;;;;1.70;1.02;;;;;;;;;;5053308;28;20104;-75
2023/03/26 09:57:04;;;;;;;2.10;1.08;;;;;;;;;;5053503;28;20087;-76
2023/03/26 09:59:38;;;;;;;3.42;1.10;;;;;;;;;;5053698;28;20021;-75
2023/03/26 10:02:06;;;;;;;2.05;0.82;;;;;;;;;;5036552;28;20033;-73
2023/03/26 10:04:50;;;;;;;2.95;0.90;;;;;;;;;;5033371;28;20026;-73
2023/03/26 10:07:34;;;;;;;2.47;0.82;;;;;;;;;;5032143;28;20029;-72
2023/03/26 10:10:17;;;;;;;2.22;0.90;;;;;;;;;;5033371;28;20109;-70
2023/03/26 10:12:50;;;;;;;2.40;0.80;;;;;;;;;;5033168;28;20029;-64
2023/03/26 10:15:33;;;;;;;4.13;0.88;;;;;;;;;;5033165;28;20036;-73
2023/03/26 10:18:32;;;;;;;2.13;0.90;;;;;;;;;;5033170;28;20033;-71
2023/03/26 10:21:10;;;;;;;3.75;1.00;;;;;;;;;;5032902;28;20108;-69
2023/03/26 10:23:44;;;;;;;2.42;0.88;;;;;;;;;;5033154;28;20407;-75
2023/03/26 10:26:33;;;;;;;3.50;1.20;;;;;;;;;;5033151;28;20025;-75
2023/03/26 10:29:17;;;;;;;4.45;1.35;;;;;;;;;;5032963;28;20025;-72
2023/03/26 10:32:20;;;;;;;4.10;1.23;;;;;;;;;;5027815;28;20033;-66
2023/03/26 10:35:10;;;;;;;2.15;1.00;;;;;;;;;;5035816;28;20026;-76
2023/03/26 10:38:20;;;;;;;1.80;0.90;;;;;;;;;;5022133;28;20423;-80
2023/03/26 10:41:17;;;;;;;5.25;1.20;;;;;;;;;;4960749;28;20046;-69
2023/03/26 10:43:57;;;;;;;1.63;0.90;;;;;;;;;;4961258;28;20030;-80
2023/03/26 10:46:34;;;;;;;1.63;0.90;;;;;;;;;;4961171;28;20396;-79
2023/03/26 10:49:24;;;;;;;1.42;0.70;;;;;;;;;;4960136;28;20035;-80
2023/03/26 10:51:57;;;;;;;2.03;0.70;;;;;;;;;;4962068;28;20528;-70
2023/03/26 10:54:47;;;;;;;3.78;0.82;;;;;;;;;;4961911;28;20035;-78
2023/03/26 10:57:34;;;;;;;1.40;0.80;;;;;;;;;;4962269;28;20089;-71
2023/03/26 11:00:31;;;;;;;3.15;1.00;;;;;;;;;;4961408;28;20133;-78
2023/03/26 11:03:05;;;;;;;3.13;0.70;;;;;;;;;;4953643;28;20050;-74
2023/03/26 11:06:00;;;;;;;3.20;0.75;;;;;;;;;;4961999;28;20079;-78
2023/03/26 11:09:02;;;;;;;3.17;1.00;;;;;;;;;;4946456;28;20047;-70
2023/03/26 11:12:06;;;;;;;2.58;0.70;;;;;;;;;;4952732;28;20565;-64
2023/03/26 11:14:59;;;;;;;3.47;1.00;;;;;;;;;;4953078;28;20032;-72
2023/03/26 11:17:34;;;;;;;1.88;0.70;;;;;;;;;;4977960;28;20108;-65
2023/03/26 11:20:18;;;;;;;1.70;0.88;;;;;;;;;;5023043;28;20078;-65
2023/03/26 11:23:08;;;;;;;2.38;0.70;;;;;;;;;;5046830;28;20458;-64
2023/03/26 11:25:51;;;;;;;2.72;1.00;;;;;;;;;;5052192;28;20367;-73
2023/03/26 11:28:47;;;;;;;4.05;1.00;;;;;;;;;;5028033;28;20017;-68
2023/03/26 11:31:20;;;;;;;2.42;1.02;;;;;;;;;;5042116;28;20026;-72
2023/03/26 11:33:54;;;;;;;2.83;1.08;;;;;;;;;;5053461;28;20116;-62
2023/03/26 11:36:25;;;;;;;1.90;0.80;;;;;;;;;;5049479;28;20497;-64
2023/03/26 11:38:56;;;;;;;3.53;1.00;;;;;;;;;;5046316;28;20056;-62
2023/03/26 11:41:23;;;;;;;;;;;;;;;;;;5041697;28;20021;-64
2023/03/26 11:43:53;;;;;;;2.33;1.10;;;;;;;;;;5052273;28;19917;-68
2023/03/26 11:46:21;;;;;;;3.00;1.02;;;;;;;;;;5041808;28;20024;-67
2023/03/26 11:48:51;;;;;;;2.17;1.10;;;;;;;;;;5045108;28;20056;-69
2023/03/26 11:51:29;;;;;;;2.83;1.00;;;;;;;;;;5049516;28;20041;-66
2023/03/26 11:53:56;;;;;;;2.50;1.00;;;;;;;;;;5039065;28;20493;-66
2023/03/26 11:56:27;;;;;;;2.78;0.90;;;;;;;;;;5049117;28;20492;-74
2023/03/26 11:59:01;;;;;;;1.90;0.90;;;;;;;;;;5046229;28;20021;-75
2023/03/26 12:01:39;;;;;;;2.20;1.05;;;;;;;;;;5039822;28;20383;-79
2023/03/26 12:04:12;;;;;;;3.70;1.20;;;;;;;;;;5024294;28;20155;-76
2023/03/26 12:06:38;;;;;;;1.88;0.73;;;;;;;;;;5046602;28;20049;-77
2023/03/26 12:09:03;;;;;;;2.55;0.88;;;;;;;;;;5042949;28;20033;-70
2023/03/26 12:11:33;;;;;;;2.95;1.17;;;;;;;;;;5036076;28;20028;-67
2023/03/26 12:14:02;;;;;;;3.15;1.10;;;;;;;;;;5050361;28;20032;-80
2023/03/26 12:16:28;;;;;;;13.38;6.82;;;;;;;;;;5043833;28;20033;-69
2023/03/26 12:19:17;;;;;;;4.72;1.75;;;;;;;;;;5042806;28;20033;-81
2023/03/26 12:21:51;;;;;;;4.97;1.58;;;;;;;;;;5051670;28;20071;-75
2023/03/26 12:24:24;;;;;;;3.28;1.40;;;;;;;;;;5042485;28;20025;-81
2023/03/26 12:26:56;;;;;;;2.13;0.90;;;;;;;;;;5042991;28;20026;-80
2023/03/26 12:29:22;;;;;;;3.45;0.90;;;;;;;;;;5050516;28;20454;-79
2023/03/26 12:31:50;;;;;;;3.50;1.38;;;;;;;;;;5037968;28;20012;-79
2023/03/26 12:34:19;;;;;;;6.13;1.23;;;;;;;;;;5054780;28;20474;-83
2023/03/26 12:36:51;;;;;;;4.28;1.42;;;;;;;;;;5044018;28;20036;-74
2023/03/26 12:39:32;;;;;;;2.50;0.90;;;;;;;;;;5050454;28;20029;-68
2023/03/26 12:42:00;;;;;;;1.88;0.80;;;;;;;;;;5024453;28;20389;-67
2023/03/26 12:44:56;;;;;;;1.73;0.70;;;;;;;;;;5046091;28;20027;-63
2023/03/26 12:47:26;;;;;;;2.17;1.10;;;;;;;;;;5038202;28;20041;-70
2023/03/26 12:49:52;;;;;;;2.80;1.08;;;;;;;;;;5022756;28;20116;-86
2023/03/26 12:52:51;;;;;;;1.98;1.25;;;;;;;;;;5047187;28;20176;-86
2023/03/26 12:55:35;;;;;;;1.55;0.75;;;;;;;;;;5050126;28;20126;-62
2023/03/26 12:58:36;;;;;;;4.28;1.33;;;;;;;;;;5024928;28;20060;-64
2023/03/26 13:01:05;;;;;;;4.15;1.40;;;;;;;;;;5040475;28;20033;-68
2023/03/26 13:03:54;;;;;;;5.45;1.88;;;;;;;;;;5050874;28;20056;-84
2023/03/26 13:06:20;;;;;;;5.47;1.48;;;;;;;;;;5041972;28;20025;-85
2023/03/26 13:09:06;;;;;;;2.80;1.27;;;;;;;;;;5042887;28;20126;-62
2023/03/26 13:11:45;;;;;;;4.80;1.40;;;;;;;;;;5050431;28;20021;-65
2023/03/26 13:14:29;;;;;;;4.18;1.05;;;;;;;;;;5040617;28;20033;-80
2023/03/26 13:16:55;;;;;;;2.88;1.50;;;;;;;;;;5041487;28;20486;-70
2023/03/26 13:19:24;;;;;;;2.75;1.00;;;;;;;;;;5050219;28;20035;-62
2023/03/26 13:22:00;;;;;;;5.80;1.10;;;;;;;;;;5021475;28;20435;-63
2023/03/26 13:24:47;;;;;;;0.90;0.70;;;;;;;;;;5045033;28;20120;-63
2023/03/26 13:27:47;;;;;;;4.75;1.25;;;;;;;;;;5033922;28;20150;-73
2023/03/26 13:30:17;;;;;;;4.95;1.40;;;;;;;;;;5033808;28;20033;-61
2023/03/26 13:33:18;;;;;;;3.67;1.40;;;;;;;;;;5032462;28;20068;-75
2023/03/26 13:35:59;;;;;;;5.28;0.95;;;;;;;;;;5034991;28;20050;-64
2023/03/26 13:38:36;;;;;;;2.08;1.10;;;;;;;;;;5032644;28;20025;-64
2023/03/26 13:41:04;;;;;;;4.03;1.25;;;;;;;;;;5032222;28;20013;-76
2023/03/26 13:43:52;;;;;;;4.63;1.30;;;;;;;;;;5035001;28;20086;-69
2023/03/26 13:46:33;;;;;;;2.00;1.10;;;;;;;;;;5034293;28;20501;-77
2023/03/26 13:49:14;;;;;;;5.70;1.15;;;;;;;;;;5031470;28;20029;-62
2023/03/26 13:52:05;;;;;;;3.45;0.95;;;;;;;;;;5031235;28;20045;-62
2023/03/26 13:54:40;;;;;;;2.83;1.15;;;;;;;;;;5024348;28;20021;-63
2023/03/26 13:57:08;;;;;;;3.70;1.55;;;;;;;;;;5034667;28;20029;-71
2023/03/26 13:59:39;;;;;;;3.30;1.23;;;;;;;;;;5049443;28;20025;-75
2023/03/26 14:02:13;;;;;;;2.70;1.20;;;;;;;;;;5037721;28;20027;-61
2023/03/26 14:04:51;;;;;;;1.65;0.93;;;;;;;;;;5044142;28;20022;-69
2023/03/26 14:07:35;;;;;;;2.95;0.90;;;;;;;;;;5047137;28;20482;-68
2023/03/26 14:10:07;;;;;;;2.28;1.20;;;;;;;;;;5020832;28;20023;-61
2023/03/26 14:12:47;;;;;;;2.10;1.30;;;;;;;;;;5031515;28;20025;-62
2023/03/26 14:15:16;;;;;;;;;;;;;;;;;;5033518;28;20037;-66
2023/03/26 14:17:48;;;;;;;7.32;1.80;;;;;;;;;;5032931;28;19909;-62
2023/03/26 14:20:36;;;;;;;2.53;1.30;;;;;;;;;;5033030;28;20021;-66
2023/03/26 14:23:16;;;;;;;2.95;1.40;;;;;;;;;;5032948;28;20025;-64
2023/03/26 14:25:47;;;;;;;5.57;2.40;;;;;;;;;;5031725;28;20025;-76
2023/03/26 14:28:23;;;;;;;3.35;1.83;;;;;;;;;;5022867;28;20096;-69
2023/03/26 14:31:30;;;;;;;3.42;1.55;;;;;;;;;;5024339;28;20037;-64
2023/03/26 14:34:17;;;;;;;2.35;1.45;;;;;;;;;;5026874;28;20053;-62
2023/03/26 14:36:49;;;;;;;3.70;1.63;;;;;;;;;;5012491;28;20069;-63
2023/03/26 14:39:41;;;;;;;5.00;1.20;;;;;;;;;;5013057;28;20033;-68
2023/03/26 14:42:18;;;;;;;4.95;1.40;;;;;;;;;;4932742;29;20062;-62
2023/03/26 14:45:19;;;;;;;5.72;1.70;;;;;;;;;;4933275;29;20036;-81
2023/03/26 14:47:56;;;;;;;11.75;2.40;;;;;;;;;;4933239;29;20056;-78
2023/03/26 14:50:41;;;;;;;3.42;1.40;;;;;;;;;;4933029;29;20050;-81
2023/03/26 14:53:34;;;;;;;8.75;2.30;;;;;;;;;;4932909;29;20068;-76
2023/03/26 14:56:15;;;;;;;7.70;3.95;;;;;;;;;;4936257;29;20508;-79
2023/03/26 14:59:15;;;;;;;6.82;3.63;;;;;;;;;;4952082;29;20452;-68
2023/03/26 15:02:17;;;;;;;7.93;4.30;;;;;;;;;;4952080;29;20118;-66
2023/03/26 15:05:01;;;;;;;4.45;1.92;;;;;;;;;;4952128;29;20539;-61
2023/03/26 15:07:44;;;;;;;6.03;2.13;;;;;;;;;;4932890;29;20098;-78
2023/03/26 15:10:34;;;;;;;4.07;1.30;;;;;;;;;;4932935;29;20602;-64
2023/03/26 15:13:30;;;;;;;5.28;1.40;;;;;;;;;;4932966;29;20051;-67
2023/03/26 15:16:15;;;;;;;3.10;1.23;;;;;;;;;;4933082;29;20032;-62
2023/03/26 15:18:47;;;;;;;5.07;1.67;;;;;;;;;;4964043;28;20049;-70
2023/03/26 15:21:12;;;;;;;7.35;1.65;;;;;;;;;;5012611;28;20169;-72
2023/03/26 15:24:05;;;;;;;12.43;2.80;;;;;;;;;;5012402;28;20069;-70
2023/03/26 15:27:02;;;;;;;9.82;2.63;;;;;;;;;;5011849;28;20190;-66
2023/03/26 15:29:52;;;;;;;13.30;2.78;;;;;;;;;;5012437;28;20028;-68